createdAt,value
2019-01-29T00:00:17.468Z,12.20
2019-01-29T00:01:17.460Z,12.60
2019-01-29T00:02:17.447Z,13.20
2019-01-29T00:03:17.468Z,12.90
2019-01-29T00:04:17.425Z,12.70
2019-01-29T00:05:17.416Z,12.40
2019-01-29T00:06:17.408Z,12.50
2019-01-29T00:07:17.393Z,12.20
2019-01-29T00:08:17.383Z,13.00
2019-01-29T00:09:17.379Z,12.60
2019-01-29T00:10:17.362Z,11.60
2019-01-29T00:11:17.351Z,12.50
2019-01-29T00:12:17.341Z,12.00
2019-01-29T00:13:17.330Z,12.60
2019-01-29T00:14:17.329Z,13.10
2019-01-29T00:15:17.324Z,12.70
2019-01-29T00:16:17.300Z,12.90
2019-01-29T00:17:17.289Z,12.00
2019-01-29T00:18:17.275Z,12.90
2019-01-29T00:19:17.265Z,12.40
2019-01-29T00:20:17.266Z,13.30
2019-01-29T00:21:17.247Z,12.80
2019-01-29T00:22:17.236Z,13.00
2019-01-29T00:23:17.227Z,12.70
2019-01-29T00:24:17.214Z,12.30
2019-01-29T00:25:17.207Z,13.00
2019-01-29T00:26:17.197Z,12.80
2019-01-29T00:27:17.182Z,13.20
2019-01-29T00:28:17.172Z,12.80
2019-01-29T00:29:17.167Z,13.00
2019-01-29T00:30:17.152Z,12.60
2019-01-29T00:31:17.143Z,12.40
2019-01-29T00:32:17.132Z,13.60
2019-01-29T00:33:17.119Z,13.20
2019-01-29T00:34:17.109Z,13.10
2019-01-29T00:35:17.099Z,12.40
2019-01-29T00:36:17.092Z,13.50
2019-01-29T00:37:17.077Z,13.40
2019-01-29T00:38:17.067Z,13.10
2019-01-29T00:39:17.057Z,13.50
2019-01-29T00:40:17.045Z,13.50
2019-01-29T00:41:17.030Z,13.20
2019-01-29T00:42:17.021Z,13.50
2019-01-29T00:43:17.013Z,13.20
2019-01-29T00:44:17.005Z,13.60
2019-01-29T00:45:16.990Z,13.30
2019-01-29T00:46:16.980Z,13.40
2019-01-29T00:47:16.968Z,13.30
2019-01-29T00:48:16.961Z,13.20
2019-01-29T00:49:16.947Z,12.40
2019-01-29T00:50:16.949Z,12.60
2019-01-29T00:51:16.931Z,12.00
2019-01-29T00:52:16.921Z,13.50
2019-01-29T00:53:16.911Z,12.40
2019-01-29T00:54:16.904Z,12.90
2019-01-29T00:55:16.887Z,12.80
2019-01-29T00:56:16.876Z,12.60
2019-01-29T00:57:16.867Z,12.90
2019-01-29T00:58:16.859Z,12.00
2019-01-29T00:59:16.853Z,12.70
2019-01-29T01:00:16.835Z,12.50
2019-01-29T01:01:16.824Z,13.00
2019-01-29T01:02:16.815Z,13.80
2019-01-29T01:03:16.803Z,13.50
2019-01-29T01:04:16.795Z,13.30
2019-01-29T01:05:16.785Z,13.60
2019-01-29T01:06:16.772Z,12.70
2019-01-29T01:07:16.762Z,13.20
2019-01-29T01:08:16.755Z,13.60
2019-01-29T01:09:16.745Z,13.30
2019-01-29T01:10:16.733Z,12.90
2019-01-29T01:11:16.720Z,12.00
2019-01-29T01:12:16.709Z,11.60
2019-01-29T01:13:16.696Z,12.10
2019-01-29T01:14:16.689Z,11.50
2019-01-29T01:15:16.676Z,11.30
2019-01-29T01:16:16.670Z,12.10
2019-01-29T01:17:16.657Z,11.20
2019-01-29T01:18:16.649Z,12.20
2019-01-29T01:19:16.637Z,11.40
2019-01-29T01:20:16.628Z,11.00
2019-01-29T01:21:16.616Z,10.10
2019-01-29T01:22:16.604Z,10.30
2019-01-29T01:23:16.594Z,10.10
2019-01-29T01:24:16.587Z,10.20
2019-01-29T01:25:16.656Z,10.20
2019-01-29T01:26:16.562Z,10.20
2019-01-29T01:27:16.550Z,8.30
2019-01-29T01:28:16.537Z,9.00
2019-01-29T01:29:16.537Z,8.20
2019-01-29T01:30:16.523Z,8.70
2019-01-29T01:31:16.510Z,7.40
2019-01-29T01:32:16.516Z,7.50
2019-01-29T01:33:16.486Z,6.80
2019-01-29T01:34:16.477Z,7.20
2019-01-29T01:35:16.466Z,7.50
2019-01-29T01:36:16.455Z,7.20
2019-01-29T01:37:16.446Z,7.10
2019-01-29T01:38:16.436Z,6.90
2019-01-29T01:39:16.424Z,6.90
2019-01-29T01:40:16.419Z,6.70
2019-01-29T01:41:16.406Z,6.80
2019-01-29T01:42:16.400Z,7.10
2019-01-29T01:43:16.383Z,6.80
2019-01-29T01:44:16.375Z,6.30
2019-01-29T01:45:16.360Z,6.10
2019-01-29T01:46:16.353Z,5.30
2019-01-29T01:47:16.344Z,5.40
2019-01-29T01:48:16.332Z,5.50
2019-01-29T01:49:16.321Z,5.70
2019-01-29T01:50:16.308Z,6.30
2019-01-29T01:51:16.300Z,6.30
2019-01-29T01:52:16.290Z,5.50
2019-01-29T01:53:16.279Z,5.90
2019-01-29T01:54:16.269Z,5.50
2019-01-29T01:55:16.254Z,6.40
2019-01-29T01:56:16.244Z,6.00
2019-01-29T01:57:16.236Z,5.80
2019-01-29T01:58:16.226Z,6.00
2019-01-29T01:59:16.212Z,6.50
2019-01-29T02:00:16.209Z,6.40
2019-01-29T02:01:16.193Z,6.90
2019-01-29T02:02:16.183Z,6.70
2019-01-29T02:03:16.173Z,7.20
2019-01-29T02:04:16.160Z,6.80
2019-01-29T02:05:16.150Z,7.30
2019-01-29T02:06:16.152Z,7.30
2019-01-29T02:07:16.134Z,8.00
2019-01-29T02:08:16.120Z,7.10
2019-01-29T02:09:16.108Z,8.40
2019-01-29T02:10:16.099Z,7.50
2019-01-29T02:11:16.086Z,7.50
2019-01-29T02:12:16.074Z,7.80
2019-01-29T02:13:16.071Z,7.90
2019-01-29T02:14:16.056Z,8.10
2019-01-29T02:15:16.043Z,7.90
2019-01-29T02:16:16.038Z,8.30
2019-01-29T02:17:16.025Z,7.70
2019-01-29T02:18:16.012Z,8.40
2019-01-29T02:19:16.001Z,8.00
2019-01-29T02:20:15.998Z,7.20
2019-01-29T02:21:15.984Z,8.10
2019-01-29T02:22:15.970Z,8.40
2019-01-29T02:23:15.964Z,7.90
2019-01-29T02:24:15.949Z,7.50
2019-01-29T02:25:15.939Z,7.30
2019-01-29T02:26:15.979Z,7.90
2019-01-29T02:27:15.917Z,8.10
2019-01-29T02:28:15.909Z,8.00
2019-01-29T02:29:15.898Z,7.00
2019-01-29T02:30:15.897Z,7.50
2019-01-29T02:31:15.883Z,7.40
2019-01-29T02:32:15.869Z,6.70
2019-01-29T02:33:15.857Z,7.10
2019-01-29T02:34:15.846Z,7.40
2019-01-29T02:35:15.835Z,6.40
2019-01-29T02:36:15.826Z,6.80
2019-01-29T02:37:15.812Z,6.60
2019-01-29T02:38:15.808Z,6.50
2019-01-29T02:39:15.791Z,6.70
2019-01-29T02:40:15.779Z,6.80
2019-01-29T02:41:15.772Z,6.00
2019-01-29T02:42:15.761Z,5.90
2019-01-29T02:43:15.750Z,6.20
2019-01-29T02:44:15.738Z,6.10
2019-01-29T02:45:15.733Z,5.70
2019-01-29T02:46:15.719Z,6.30
2019-01-29T02:47:15.709Z,5.90
2019-01-29T02:48:15.697Z,5.80
2019-01-29T02:49:15.689Z,5.10
2019-01-29T02:50:15.677Z,5.10
2019-01-29T02:51:15.668Z,5.00
2019-01-29T02:52:15.654Z,5.70
2019-01-29T02:53:18.300Z,5.50
2019-01-29T02:54:15.632Z,5.10
2019-01-29T02:55:15.624Z,5.80
2019-01-29T02:56:15.613Z,5.70
2019-01-29T02:57:15.600Z,5.10
2019-01-29T02:58:15.589Z,5.10
2019-01-29T02:59:15.582Z,5.10
2019-01-29T03:00:15.569Z,4.80
2019-01-29T03:01:15.559Z,5.10
2019-01-29T03:02:15.553Z,4.80
2019-01-29T03:03:15.541Z,3.90
2019-01-29T03:04:15.533Z,4.70
2019-01-29T03:05:15.515Z,4.60
2019-01-29T03:06:15.507Z,4.70
2019-01-29T03:07:15.497Z,4.70
2019-01-29T03:08:15.489Z,4.60
2019-01-29T03:09:15.474Z,4.60
2019-01-29T03:10:15.469Z,4.70
2019-01-29T03:11:15.458Z,5.10
2019-01-29T03:12:15.443Z,4.70
2019-01-29T03:13:15.432Z,5.10
2019-01-29T03:14:15.422Z,4.90
2019-01-29T03:15:15.413Z,5.20
2019-01-29T03:16:15.402Z,5.60
2019-01-29T03:17:15.399Z,4.90
2019-01-29T03:18:15.523Z,5.50
2019-01-29T03:19:15.369Z,5.50
2019-01-29T03:20:15.400Z,5.30
2019-01-29T03:21:15.349Z,5.10
2019-01-29T03:22:15.335Z,5.00
2019-01-29T03:23:15.326Z,5.40
2019-01-29T03:24:15.321Z,5.20
2019-01-29T03:25:15.306Z,4.80
2019-01-29T03:26:15.296Z,4.50
2019-01-29T03:27:15.295Z,5.00
2019-01-29T03:28:15.275Z,4.90
2019-01-29T03:29:15.267Z,4.60
2019-01-29T03:30:15.260Z,5.30
2019-01-29T03:31:15.243Z,4.70
2019-01-29T03:32:15.245Z,4.70
2019-01-29T03:33:15.237Z,5.10
2019-01-29T03:34:15.211Z,5.10
2019-01-29T03:35:15.214Z,5.20
2019-01-29T03:36:15.194Z,4.80
2019-01-29T03:37:15.184Z,5.30
2019-01-29T03:38:15.178Z,5.50
2019-01-29T03:39:15.160Z,5.70
2019-01-29T03:40:15.166Z,5.90
2019-01-29T03:41:15.138Z,5.40
2019-01-29T03:42:15.131Z,5.30
2019-01-29T03:43:15.118Z,5.50
2019-01-29T03:44:15.113Z,5.50
2019-01-29T03:45:15.108Z,5.80
2019-01-29T03:46:15.085Z,6.40
2019-01-29T03:47:15.080Z,6.20
2019-01-29T03:48:15.065Z,6.60
2019-01-29T03:49:15.053Z,6.50
2019-01-29T03:50:15.045Z,6.50
2019-01-29T03:51:15.034Z,6.70
2019-01-29T03:52:15.026Z,6.20
2019-01-29T03:53:15.016Z,6.50
2019-01-29T03:54:15.006Z,6.90
2019-01-29T03:55:14.996Z,6.90
2019-01-29T03:56:14.987Z,6.50
2019-01-29T03:57:14.973Z,6.90
2019-01-29T03:58:14.958Z,6.90
2019-01-29T03:59:14.950Z,7.70
2019-01-29T04:00:14.941Z,7.20
2019-01-29T04:01:14.931Z,7.20
2019-01-29T04:02:14.916Z,6.70
2019-01-29T04:03:14.913Z,6.90
2019-01-29T04:04:14.895Z,7.00
2019-01-29T04:05:14.887Z,8.00
2019-01-29T04:06:14.874Z,7.40
2019-01-29T04:07:14.870Z,7.20
2019-01-29T04:08:14.859Z,7.30
2019-01-29T04:09:14.845Z,7.20
2019-01-29T04:10:15.852Z,7.10
2019-01-29T04:11:16.939Z,7.00
2019-01-29T04:12:14.815Z,7.50
2019-01-29T04:13:14.805Z,7.80
2019-01-29T04:14:14.794Z,7.70
2019-01-29T04:15:14.782Z,8.70
2019-01-29T04:16:14.775Z,7.70
2019-01-29T04:17:14.760Z,7.90
2019-01-29T04:18:14.750Z,8.00
2019-01-29T04:19:14.739Z,8.10
2019-01-29T04:20:14.731Z,8.20
2019-01-29T04:21:14.720Z,8.10
2019-01-29T04:22:14.706Z,8.30
2019-01-29T04:23:14.697Z,7.90
2019-01-29T04:24:14.693Z,8.50
2019-01-29T04:25:14.678Z,8.40
2019-01-29T04:26:14.666Z,8.40
2019-01-29T04:27:14.654Z,7.60
2019-01-29T04:28:14.646Z,8.20
2019-01-29T04:29:14.642Z,7.90
2019-01-29T04:30:14.627Z,8.40
2019-01-29T04:31:14.614Z,8.60
2019-01-29T04:32:14.605Z,7.00
2019-01-29T04:33:14.592Z,8.00
2019-01-29T04:34:14.584Z,8.00
2019-01-29T04:35:14.575Z,8.00
2019-01-29T04:36:14.581Z,8.60
2019-01-29T04:37:14.552Z,8.30
2019-01-29T04:38:14.539Z,8.50
2019-01-29T04:39:14.529Z,8.30
2019-01-29T04:40:14.576Z,8.80
2019-01-29T04:41:14.508Z,8.30
2019-01-29T04:42:14.498Z,8.90
2019-01-29T04:43:14.490Z,8.40
2019-01-29T04:44:14.479Z,8.90
2019-01-29T04:45:14.471Z,8.80
2019-01-29T04:46:14.454Z,8.90
2019-01-29T04:47:14.445Z,8.90
2019-01-29T04:48:14.436Z,8.90
2019-01-29T04:49:14.434Z,8.70
2019-01-29T04:50:14.414Z,8.30
2019-01-29T04:51:14.406Z,8.00
2019-01-29T04:52:14.393Z,8.10
2019-01-29T04:53:14.385Z,8.70
2019-01-29T04:54:14.374Z,8.60
2019-01-29T04:55:14.363Z,8.70
2019-01-29T04:56:14.352Z,9.20
2019-01-29T04:57:14.339Z,8.30
2019-01-29T04:58:14.328Z,8.60
2019-01-29T04:59:14.325Z,8.70
2019-01-29T05:00:14.309Z,8.80
2019-01-29T05:01:14.299Z,7.70
2019-01-29T05:02:14.287Z,8.60
2019-01-29T05:03:14.273Z,8.30
2019-01-29T05:04:14.267Z,8.30
2019-01-29T05:05:14.260Z,7.90
2019-01-29T05:06:14.246Z,7.70
2019-01-29T05:07:14.233Z,6.60
2019-01-29T05:08:14.231Z,7.20
2019-01-29T05:09:14.213Z,7.40
2019-01-29T05:10:14.254Z,7.20
2019-01-29T05:11:14.587Z,7.30
2019-01-29T05:12:14.176Z,7.90
2019-01-29T05:13:14.180Z,7.40
2019-01-29T05:14:14.161Z,7.20
2019-01-29T05:15:14.153Z,7.80
2019-01-29T05:16:14.140Z,6.30
2019-01-29T05:17:14.129Z,6.80
2019-01-29T05:18:14.118Z,7.40
2019-01-29T05:19:14.113Z,7.50
2019-01-29T05:20:14.100Z,7.80
2019-01-29T05:21:14.087Z,7.70
2019-01-29T05:22:14.078Z,7.80
2019-01-29T05:23:14.074Z,7.70
2019-01-29T05:24:14.064Z,6.60
2019-01-29T05:25:14.046Z,7.30
2019-01-29T05:26:14.049Z,7.40
2019-01-29T05:27:14.025Z,7.80
2019-01-29T05:28:14.023Z,7.30
2019-01-29T05:29:14.007Z,7.50
2019-01-29T05:30:13.996Z,7.80
2019-01-29T05:31:13.987Z,7.00
2019-01-29T05:32:13.974Z,8.10
2019-01-29T05:33:13.964Z,7.80
2019-01-29T05:34:13.957Z,8.00
2019-01-29T05:35:13.945Z,7.60
2019-01-29T05:36:13.933Z,7.50
2019-01-29T05:37:13.924Z,7.60
2019-01-29T05:38:13.912Z,5.80
2019-01-29T05:39:13.902Z,7.20
2019-01-29T05:40:13.892Z,7.00
2019-01-29T05:41:13.874Z,6.80
2019-01-29T05:42:13.913Z,6.30
2019-01-29T05:43:13.856Z,6.50
2019-01-29T05:44:13.850Z,6.80
2019-01-29T05:45:13.838Z,6.80
2019-01-29T05:46:13.833Z,7.10
2019-01-29T05:47:13.824Z,7.00
2019-01-29T05:48:13.805Z,6.70
2019-01-29T05:49:13.794Z,7.40
2019-01-29T05:50:13.788Z,6.80
2019-01-29T05:51:13.816Z,9.90
2019-01-29T05:52:13.767Z,7.40
2019-01-29T05:53:13.753Z,7.80
2019-01-29T05:54:16.469Z,7.00
2019-01-29T05:55:13.735Z,6.60
2019-01-29T05:56:13.720Z,6.90
2019-01-29T05:57:13.713Z,7.40
2019-01-29T05:58:13.702Z,7.60
2019-01-29T05:59:13.691Z,6.70
2019-01-29T06:00:13.689Z,6.40
2019-01-29T06:01:13.672Z,6.50
2019-01-29T06:02:13.661Z,7.10
2019-01-29T06:03:13.651Z,6.50
2019-01-29T06:04:13.637Z,6.30
2019-01-29T06:05:13.634Z,7.00
2019-01-29T06:06:13.621Z,6.80
2019-01-29T06:07:13.611Z,6.90
2019-01-29T06:08:13.603Z,6.80
2019-01-29T06:09:13.586Z,7.20
2019-01-29T06:10:13.578Z,6.60
2019-01-29T06:11:13.564Z,7.00
2019-01-29T06:12:13.555Z,6.30
2019-01-29T06:13:13.546Z,6.40
2019-01-29T06:14:13.537Z,7.30
2019-01-29T06:15:13.534Z,8.10
2019-01-29T06:16:13.525Z,7.00
2019-01-29T06:17:13.506Z,7.00
2019-01-29T06:18:13.505Z,7.20
2019-01-29T06:19:13.483Z,7.00
2019-01-29T06:20:13.474Z,7.20
2019-01-29T06:21:13.460Z,7.80
2019-01-29T06:22:13.453Z,7.80
2019-01-29T06:23:13.438Z,6.50
2019-01-29T06:24:13.427Z,7.80
2019-01-29T06:25:13.437Z,7.50
2019-01-29T06:26:13.411Z,6.70
2019-01-29T06:27:13.398Z,7.20
2019-01-29T06:28:13.380Z,6.60
2019-01-29T06:29:13.372Z,6.30
2019-01-29T06:30:13.359Z,6.20
2019-01-29T06:31:13.350Z,7.00
2019-01-29T06:32:13.338Z,7.10
2019-01-29T06:33:13.328Z,7.60
2019-01-29T06:34:13.318Z,13.10
2019-01-29T06:35:13.308Z,7.40
2019-01-29T06:36:13.303Z,7.90
2019-01-29T06:37:13.286Z,7.90
2019-01-29T06:38:13.277Z,9.40
2019-01-29T06:39:13.268Z,8.70
2019-01-29T06:40:13.254Z,7.20
2019-01-29T06:41:13.244Z,7.10
2019-01-29T06:42:13.234Z,6.50
2019-01-29T06:43:13.223Z,6.70
2019-01-29T06:44:13.212Z,9.80
2019-01-29T06:45:13.203Z,8.60
2019-01-29T06:46:13.195Z,8.30
2019-01-29T06:47:13.183Z,9.50
2019-01-29T06:48:13.170Z,9.60
2019-01-29T06:49:13.161Z,7.90
2019-01-29T06:50:13.149Z,8.30
2019-01-29T06:51:13.140Z,7.30
2019-01-29T06:52:13.130Z,12.20
2019-01-29T06:53:13.117Z,7.30
2019-01-29T06:54:13.109Z,7.80
2019-01-29T06:55:13.097Z,8.30
2019-01-29T06:56:13.088Z,8.50
2019-01-29T06:57:13.078Z,6.30
2019-01-29T06:58:13.069Z,6.90
2019-01-29T06:59:13.056Z,6.30
2019-01-29T07:00:13.046Z,6.20
2019-01-29T07:01:13.037Z,6.00
2019-01-29T07:02:13.026Z,6.10
2019-01-29T07:03:13.015Z,6.00
2019-01-29T07:04:13.006Z,6.60
2019-01-29T07:05:12.996Z,6.40
2019-01-29T07:06:12.982Z,6.30
2019-01-29T07:07:13.065Z,6.20
2019-01-29T07:08:13.323Z,6.70
2019-01-29T07:09:12.950Z,6.60
2019-01-29T07:10:12.940Z,7.00
2019-01-29T07:11:12.938Z,6.60
2019-01-29T07:12:12.919Z,7.30
2019-01-29T07:13:12.914Z,7.30
2019-01-29T07:14:12.899Z,7.50
2019-01-29T07:15:12.889Z,6.40
2019-01-29T07:16:12.879Z,7.10
2019-01-29T07:17:12.868Z,6.80
2019-01-29T07:18:12.863Z,6.10
2019-01-29T07:19:12.848Z,6.30
2019-01-29T07:20:12.840Z,5.40
2019-01-29T07:21:12.825Z,6.00
2019-01-29T07:22:12.815Z,6.10
2019-01-29T07:23:12.806Z,5.70
2019-01-29T07:24:12.792Z,5.70
2019-01-29T07:25:12.785Z,5.30
2019-01-29T07:26:12.942Z,5.40
2019-01-29T07:27:12.765Z,5.20
2019-01-29T07:28:13.482Z,5.30
2019-01-29T07:29:12.745Z,5.70
2019-01-29T07:30:12.731Z,5.40
2019-01-29T07:31:12.720Z,5.10
2019-01-29T07:32:12.712Z,5.50
2019-01-29T07:33:12.705Z,5.50
2019-01-29T07:34:12.689Z,5.20
2019-01-29T07:35:12.680Z,5.00
2019-01-29T07:36:12.668Z,5.60
2019-01-29T07:37:12.658Z,5.20
2019-01-29T07:38:12.647Z,5.50
2019-01-29T07:39:12.639Z,5.70
2019-01-29T07:40:12.645Z,6.60
2019-01-29T07:41:12.618Z,5.90
2019-01-29T07:42:12.605Z,5.30
2019-01-29T07:43:12.598Z,5.50
2019-01-29T07:44:12.585Z,5.90
2019-01-29T07:45:12.575Z,6.70
2019-01-29T07:46:12.566Z,5.80
2019-01-29T07:47:12.556Z,5.80
2019-01-29T07:48:12.546Z,5.60
2019-01-29T07:49:12.536Z,6.10
2019-01-29T07:50:12.524Z,6.30
2019-01-29T07:51:12.512Z,6.50
2019-01-29T07:52:12.915Z,6.20
2019-01-29T07:53:12.497Z,6.50
2019-01-29T07:54:12.479Z,6.50
2019-01-29T07:55:12.468Z,6.50
2019-01-29T07:56:12.459Z,6.50
2019-01-29T07:57:12.449Z,6.50
2019-01-29T07:58:12.437Z,6.20
2019-01-29T07:59:12.427Z,6.30
2019-01-29T08:00:12.419Z,6.70
2019-01-29T08:01:12.406Z,6.80
2019-01-29T08:02:12.396Z,6.70
2019-01-29T08:03:12.385Z,7.30
2019-01-29T08:04:12.381Z,6.20
2019-01-29T08:05:12.367Z,6.40
2019-01-29T08:06:12.353Z,6.30
2019-01-29T08:07:12.344Z,6.00
2019-01-29T08:08:12.331Z,5.60
2019-01-29T08:09:12.326Z,6.00
2019-01-29T08:10:12.311Z,6.10
2019-01-29T08:11:12.303Z,5.90
2019-01-29T08:12:12.293Z,5.80
2019-01-29T08:13:12.284Z,6.50
2019-01-29T08:14:12.269Z,6.30
2019-01-29T08:15:12.265Z,6.30
2019-01-29T08:16:12.248Z,6.10
2019-01-29T08:17:12.237Z,6.10
2019-01-29T08:18:12.228Z,5.70
2019-01-29T08:19:12.218Z,5.90
2019-01-29T08:20:12.206Z,6.30
2019-01-29T08:21:12.195Z,6.30
2019-01-29T08:22:12.186Z,5.70
2019-01-29T08:23:12.181Z,5.80
2019-01-29T08:24:12.165Z,5.60
2019-01-29T08:25:12.154Z,5.80
2019-01-29T08:26:12.144Z,6.40
2019-01-29T08:27:12.132Z,5.80
2019-01-29T08:28:12.121Z,5.30
2019-01-29T08:29:12.116Z,6.10
2019-01-29T08:30:12.111Z,5.90
2019-01-29T08:31:12.091Z,5.80
2019-01-29T08:32:12.082Z,6.50
2019-01-29T08:33:12.070Z,6.10
2019-01-29T08:34:12.058Z,5.90
2019-01-29T08:35:12.047Z,6.10
2019-01-29T08:36:12.038Z,5.90
2019-01-29T08:37:12.030Z,6.10
2019-01-29T08:38:12.017Z,6.10
2019-01-29T08:39:12.011Z,6.60
2019-01-29T08:40:11.995Z,6.50
2019-01-29T08:41:11.988Z,6.00
2019-01-29T08:42:11.975Z,5.80
2019-01-29T08:43:11.971Z,5.50
2019-01-29T08:44:11.953Z,6.20
2019-01-29T08:45:11.948Z,6.00
2019-01-29T08:46:11.932Z,6.00
2019-01-29T08:47:11.923Z,5.80
2019-01-29T08:48:11.911Z,5.80
2019-01-29T08:49:11.900Z,6.20
2019-01-29T08:50:11.891Z,5.80
2019-01-29T08:51:11.884Z,5.60
2019-01-29T08:52:11.872Z,6.20
2019-01-29T08:53:11.865Z,5.50
2019-01-29T08:54:11.850Z,6.30
2019-01-29T08:55:11.837Z,6.20
2019-01-29T08:56:11.825Z,6.20
2019-01-29T08:57:11.816Z,6.50
2019-01-29T08:58:11.809Z,6.30
2019-01-29T08:59:11.796Z,6.20
2019-01-29T09:00:11.813Z,6.50
2019-01-29T09:01:11.777Z,6.40
2019-01-29T09:02:11.763Z,5.80
2019-01-29T09:03:11.755Z,5.90
2019-01-29T09:04:11.743Z,5.50
2019-01-29T09:05:11.733Z,6.30
2019-01-29T09:06:11.721Z,6.30
2019-01-29T09:07:11.710Z,5.70
2019-01-29T09:08:13.080Z,5.40
2019-01-29T09:09:11.691Z,5.70
2019-01-29T09:10:11.680Z,6.20
2019-01-29T09:11:11.667Z,5.80
2019-01-29T09:12:11.658Z,5.80
2019-01-29T09:13:11.648Z,5.60
2019-01-29T09:14:11.643Z,5.30
2019-01-29T09:15:11.628Z,5.90
2019-01-29T09:16:11.617Z,6.20
2019-01-29T09:17:11.605Z,6.10
2019-01-29T09:18:11.599Z,5.60
2019-01-29T09:19:11.585Z,5.80
2019-01-29T09:20:11.573Z,5.90
2019-01-29T09:21:11.561Z,5.50
2019-01-29T09:22:11.553Z,6.00
2019-01-29T09:23:11.543Z,5.50
2019-01-29T09:24:11.532Z,5.80
2019-01-29T09:25:19.633Z,5.70
2019-01-29T09:26:12.507Z,5.70
2019-01-29T09:27:11.500Z,5.30
2019-01-29T09:28:11.489Z,5.50
2019-01-29T09:29:17.631Z,5.70
2019-01-29T09:30:12.466Z,5.80
2019-01-29T09:31:11.464Z,6.00
2019-01-29T09:32:11.449Z,5.90
2019-01-29T09:33:11.444Z,5.10
2019-01-29T09:34:11.429Z,5.10
2019-01-29T09:35:11.415Z,5.00
2019-01-29T09:36:11.435Z,5.00
2019-01-29T09:37:11.395Z,5.30
2019-01-29T09:38:11.387Z,5.40
2019-01-29T09:39:11.373Z,5.70
2019-01-29T09:40:11.363Z,5.30
2019-01-29T09:41:11.354Z,6.80
2019-01-29T09:42:11.378Z,6.30
2019-01-29T09:43:11.332Z,5.80
2019-01-29T09:44:11.331Z,5.20
2019-01-29T09:45:11.309Z,5.70
2019-01-29T09:46:11.300Z,6.00
2019-01-29T09:47:11.340Z,5.60
2019-01-29T09:48:11.277Z,5.60
2019-01-29T09:49:11.374Z,5.70
2019-01-29T09:50:11.269Z,6.00
2019-01-29T09:51:11.246Z,6.60
2019-01-29T09:52:11.238Z,6.30
2019-01-29T09:53:11.257Z,6.60
2019-01-29T09:54:11.218Z,6.00
2019-01-29T09:55:11.204Z,6.60
2019-01-29T09:56:11.240Z,6.40
2019-01-29T09:57:11.184Z,6.70
2019-01-29T09:58:11.173Z,6.50
2019-01-29T09:59:11.168Z,6.60
2019-01-29T10:00:11.150Z,6.70
2019-01-29T10:01:11.144Z,6.30
2019-01-29T10:02:11.131Z,6.70
2019-01-29T10:03:11.121Z,6.30
2019-01-29T10:04:11.110Z,6.70
2019-01-29T10:05:11.115Z,6.00
2019-01-29T10:06:11.105Z,6.00
2019-01-29T10:07:11.078Z,6.40
2019-01-29T10:08:11.069Z,6.10
2019-01-29T10:09:11.057Z,6.10
2019-01-29T10:10:11.047Z,6.70
2019-01-29T10:11:11.055Z,6.20
2019-01-29T10:12:11.026Z,5.70
2019-01-29T10:13:11.014Z,6.20
2019-01-29T10:14:11.003Z,6.20
2019-01-29T10:15:10.993Z,6.10
2019-01-29T10:16:10.983Z,5.90
2019-01-29T10:17:10.974Z,6.10
2019-01-29T10:18:10.963Z,6.20
2019-01-29T10:19:10.951Z,5.80
2019-01-29T10:20:10.942Z,6.00
2019-01-29T10:21:10.934Z,5.60
2019-01-29T10:22:10.920Z,5.90
2019-01-29T10:23:10.924Z,6.00
2019-01-29T10:24:10.898Z,6.70
2019-01-29T10:25:10.893Z,5.50
2019-01-29T10:26:10.882Z,6.30
2019-01-29T10:27:10.888Z,5.80
2019-01-29T10:28:10.857Z,6.30
2019-01-29T10:29:10.846Z,5.70
2019-01-29T10:30:10.836Z,5.40
2019-01-29T10:31:10.830Z,5.10
2019-01-29T10:32:10.816Z,5.60
2019-01-29T10:33:10.805Z,6.10
2019-01-29T10:34:10.793Z,5.80
2019-01-29T10:35:10.781Z,5.40
2019-01-29T10:36:10.771Z,5.20
2019-01-29T10:37:10.762Z,5.10
2019-01-29T10:38:10.751Z,6.20
2019-01-29T10:39:10.743Z,5.50
2019-01-29T10:40:10.730Z,5.20
2019-01-29T10:41:10.719Z,5.70
2019-01-29T10:42:10.708Z,5.20
2019-01-29T10:43:10.701Z,5.10
2019-01-29T10:44:10.688Z,5.20
2019-01-29T10:45:10.678Z,5.30
2019-01-29T10:46:10.666Z,5.10
2019-01-29T10:47:11.449Z,5.20
2019-01-29T10:48:10.651Z,5.10
2019-01-29T10:49:10.634Z,4.80
2019-01-29T10:50:10.648Z,4.80
2019-01-29T10:51:10.612Z,5.20
2019-01-29T10:52:10.607Z,4.70
2019-01-29T10:53:10.594Z,4.80
2019-01-29T10:54:10.580Z,5.00
2019-01-29T10:55:10.571Z,5.30
2019-01-29T10:56:10.562Z,4.60
2019-01-29T10:57:10.549Z,6.10
2019-01-29T10:58:10.538Z,5.00
2019-01-29T10:59:10.532Z,4.80
2019-01-29T11:00:12.168Z,4.40
2019-01-29T11:01:10.511Z,4.70
2019-01-29T11:02:10.498Z,4.40
2019-01-29T11:03:10.489Z,4.20
2019-01-29T11:04:10.476Z,4.80
2019-01-29T11:05:10.471Z,4.50
2019-01-29T11:06:10.468Z,4.30
2019-01-29T11:07:10.445Z,4.80
2019-01-29T11:08:10.434Z,4.60
2019-01-29T11:09:10.424Z,4.50
2019-01-29T11:10:10.414Z,4.60
2019-01-29T11:11:10.405Z,4.60
2019-01-29T11:12:10.416Z,5.00
2019-01-29T11:13:10.462Z,4.50
2019-01-29T11:14:10.370Z,4.60
2019-01-29T11:15:10.359Z,4.70
2019-01-29T11:16:10.350Z,5.00
2019-01-29T11:17:10.342Z,4.50
2019-01-29T11:18:10.334Z,4.70
2019-01-29T11:19:10.329Z,4.80
2019-01-29T11:20:10.308Z,4.70
2019-01-29T11:21:10.296Z,5.10
2019-01-29T11:22:10.287Z,5.60
2019-01-29T11:23:10.276Z,5.00
2019-01-29T11:24:10.264Z,5.50
2019-01-29T11:25:10.255Z,5.10
2019-01-29T11:26:10.243Z,4.90
2019-01-29T11:27:10.232Z,4.70
2019-01-29T11:28:10.222Z,5.00
2019-01-29T11:29:10.212Z,4.80
2019-01-29T11:30:10.201Z,4.90
2019-01-29T11:31:10.192Z,5.10
2019-01-29T11:32:10.179Z,5.00
2019-01-29T11:33:10.168Z,5.60
2019-01-29T11:34:10.157Z,5.80
2019-01-29T11:35:10.150Z,5.10
2019-01-29T11:36:10.142Z,5.30
2019-01-29T11:37:12.048Z,5.60
2019-01-29T11:38:10.120Z,5.60
2019-01-29T11:39:10.107Z,6.20
2019-01-29T11:40:10.096Z,5.40
2019-01-29T11:41:10.084Z,5.10
2019-01-29T11:42:10.076Z,5.50
2019-01-29T11:43:10.065Z,6.30
2019-01-29T11:44:10.054Z,6.20
2019-01-29T11:45:10.048Z,5.50
2019-01-29T11:46:10.032Z,5.60
2019-01-29T11:47:10.023Z,5.90
2019-01-29T11:48:10.010Z,5.90
2019-01-29T11:49:10.002Z,6.30
2019-01-29T11:50:09.989Z,6.30
2019-01-29T11:51:09.979Z,6.00
2019-01-29T11:52:11.194Z,6.40
2019-01-29T11:53:09.962Z,6.50
2019-01-29T11:54:09.949Z,5.80
2019-01-29T11:55:09.938Z,6.70
2019-01-29T11:56:09.959Z,6.40
2019-01-29T11:57:09.916Z,6.30
2019-01-29T11:58:09.908Z,6.40
2019-01-29T11:59:09.897Z,7.70
2019-01-29T12:00:09.891Z,8.10
2019-01-29T12:01:09.875Z,7.30
2019-01-29T12:02:09.863Z,6.50
2019-01-29T12:03:09.851Z,6.40
2019-01-29T12:04:09.845Z,7.00
2019-01-29T12:05:09.832Z,6.30
2019-01-29T12:06:09.823Z,6.30
2019-01-29T12:07:09.809Z,6.80
2019-01-29T12:08:09.808Z,6.90
2019-01-29T12:09:09.789Z,6.90
2019-01-29T12:10:09.780Z,7.00
2019-01-29T12:11:09.766Z,7.30
2019-01-29T12:12:09.760Z,6.30
2019-01-29T12:13:09.748Z,6.60
2019-01-29T12:14:09.739Z,6.90
2019-01-29T12:15:09.725Z,6.60
2019-01-29T12:16:09.714Z,6.60
2019-01-29T12:17:09.706Z,6.60
2019-01-29T12:18:09.699Z,7.20
2019-01-29T12:19:09.685Z,7.30
2019-01-29T12:20:09.674Z,7.20
2019-01-29T12:21:09.663Z,6.70
2019-01-29T12:22:09.651Z,6.10
2019-01-29T12:23:09.643Z,6.60
2019-01-29T12:24:11.253Z,5.60
2019-01-29T12:25:09.619Z,5.60
2019-01-29T12:26:13.318Z,5.20
2019-01-29T12:27:09.598Z,5.60
2019-01-29T12:28:09.588Z,5.20
2019-01-29T12:29:09.579Z,5.20
2019-01-29T12:30:09.567Z,4.50
2019-01-29T12:31:09.559Z,5.20
2019-01-29T12:32:09.547Z,5.00
2019-01-29T12:33:09.537Z,5.10
2019-01-29T12:34:09.525Z,5.30
2019-01-29T12:35:09.515Z,5.30
2019-01-29T12:36:09.506Z,5.40
2019-01-29T12:37:09.492Z,4.80
2019-01-29T12:38:09.484Z,4.90
2019-01-29T12:39:09.472Z,5.00
2019-01-29T12:40:09.462Z,5.20
2019-01-29T12:41:09.451Z,4.50
2019-01-29T12:42:09.441Z,4.40
2019-01-29T12:43:09.429Z,4.70
2019-01-29T12:44:09.421Z,5.10
2019-01-29T12:45:09.408Z,4.90
2019-01-29T12:46:09.399Z,5.00
2019-01-29T12:47:09.391Z,4.90
2019-01-29T12:48:09.377Z,5.10
2019-01-29T12:49:09.366Z,4.80
2019-01-29T12:50:09.356Z,4.70
2019-01-29T12:51:09.344Z,4.40
2019-01-29T12:52:09.337Z,4.50
2019-01-29T12:53:09.322Z,4.10
2019-01-29T12:54:09.312Z,4.50
2019-01-29T12:55:09.301Z,4.30
2019-01-29T12:56:09.291Z,4.60
2019-01-29T12:57:09.280Z,3.80
2019-01-29T12:58:09.270Z,3.80
2019-01-29T12:59:09.264Z,3.90
2019-01-29T13:00:09.248Z,3.70
2019-01-29T13:01:09.239Z,3.80
2019-01-29T13:02:09.227Z,3.70
2019-01-29T13:03:09.215Z,3.70
2019-01-29T13:04:09.216Z,3.70
2019-01-29T13:05:09.194Z,3.40
2019-01-29T13:06:09.184Z,3.40
2019-01-29T13:07:09.173Z,3.50
2019-01-29T13:08:09.160Z,3.40
2019-01-29T13:09:09.150Z,3.30
2019-01-29T13:10:09.141Z,3.50
2019-01-29T13:11:09.128Z,3.30
2019-01-29T13:12:09.118Z,3.40
2019-01-29T13:13:09.116Z,3.10
2019-01-29T13:14:09.096Z,3.20
2019-01-29T13:15:09.085Z,2.90